Terminal Aerodrome Forecast
Issued by NWS

Home | Current Version | Previous Version | Text Only | Print | Product List | Glossary On
Versions: 1 2 3 4 5 6 7 8 9 10 11 12 13 14 15 16 17 18 19 20 21 22 23 24 25 26 27 28 29 30 31 32 33
451
FTUS41 KRNK 131723
TAFLWB
TAF
KLWB 131723Z 1318/1418 30012G19KT P6SM BKN035
      TEMPO 1318/1320 3SM -SN BKN025
     FM140000 30008KT P6SM BKN035
     FM140300 31006KT P6SM SCT035
     FM141400 29002KT P6SM SCT050 OVC100=

USA.gov is the U.S. government's official web portal to all federal, state and local government web resources and services.